createdAt,value
2023-06-10T06:05:27.480Z,5.50
2023-06-10T06:10:29.609Z,9.90
2023-06-10T06:15:31.739Z,4.85
2023-06-10T06:20:33.836Z,6.00
2023-06-10T06:25:36.754Z,9.63
2023-06-10T06:30:38.880Z,6.72
2023-06-10T06:35:41.332Z,6.80
2023-06-10T06:40:43.551Z,7.10
2023-06-10T06:45:46.260Z,7.20
2023-06-10T06:50:48.361Z,6.03
2023-06-10T06:55:50.475Z,11.00
2023-06-10T07:00:52.652Z,7.53
2023-06-10T07:05:54.877Z,9.13
2023-06-10T07:10:57.022Z,6.45
2023-06-10T07:15:59.168Z,7.83
2023-06-10T07:21:01.551Z,7.03
2023-06-10T07:26:03.857Z,9.40
2023-06-10T07:31:06.157Z,7.73
2023-06-10T07:36:08.543Z,7.35
2023-06-10T07:41:11.867Z,9.13
2023-06-10T07:46:14.053Z,7.27
2023-06-10T07:51:17.707Z,8.40
2023-06-10T07:56:21.799Z,9.65
2023-06-10T08:01:25.522Z,6.60
2023-06-10T08:06:27.754Z,7.47
2023-06-10T08:11:30.855Z,7.97
2023-06-10T08:16:33.066Z,7.50
2023-06-10T08:21:35.268Z,8.63
2023-06-10T08:26:37.586Z,7.95
2023-06-10T08:31:43.907Z,8.40
2023-06-10T08:36:46.656Z,7.77
2023-06-10T08:42:19.671Z,9.77
2023-06-10T08:47:24.382Z,9.43
2023-06-10T08:52:30.532Z,9.23
2023-06-10T08:57:32.661Z,10.50
2023-06-10T09:02:36.588Z,9.40
2023-06-10T09:07:39.679Z,8.55
2023-06-10T09:12:41.812Z,10.63
2023-06-10T09:17:44.534Z,9.38
2023-06-10T09:22:46.874Z,10.55
2023-06-10T09:27:55.322Z,11.90
2023-06-10T09:32:59.783Z,13.47
2023-06-10T09:38:03.456Z,11.05
2023-06-10T09:43:05.722Z,12.37
2023-06-10T09:48:08.111Z,11.57
2023-06-10T09:53:11.397Z,15.30
2023-06-10T09:58:13.515Z,11.05
2023-06-10T10:03:24.334Z,12.43
2023-06-10T10:08:26.860Z,13.60
2023-06-10T10:13:29.416Z,13.90
2023-06-10T10:18:32.716Z,13.53
2023-06-10T10:24:02.439Z,13.40
2023-06-10T10:29:21.145Z,11.75
2023-06-10T10:34:31.880Z,11.98
2023-06-10T10:39:36.293Z,11.67
2023-06-10T10:44:41.958Z,11.18
2023-06-10T10:49:46.123Z,10.05
2023-06-10T10:54:48.866Z,8.83
2023-06-10T10:59:52.686Z,12.15
2023-06-10T11:04:56.259Z,11.15
2023-06-10T11:10:15.174Z,11.50
2023-06-10T11:15:24.811Z,12.20
2023-06-10T11:20:46.278Z,12.18
2023-06-10T11:25:48.435Z,13.40
2023-06-10T11:30:58.741Z,9.63
2023-06-10T11:36:01.014Z,9.77
2023-06-10T11:41:04.126Z,11.85
2023-06-10T11:46:09.272Z,9.37
2023-06-10T11:51:11.492Z,16.17
2023-06-10T11:56:13.864Z,16.30
2023-06-10T12:01:28.263Z,14.90
2023-06-10T12:06:45.882Z,8.10
2023-06-10T12:11:53.507Z,5.78
2023-06-10T12:16:57.523Z,5.15
2023-06-10T12:22:02.223Z,4.57
2023-06-10T12:27:04.479Z,4.93
2023-06-10T12:32:08.493Z,4.75
2023-06-10T12:37:14.768Z,3.37
2023-06-10T12:42:16.962Z,4.97
2023-06-10T12:47:19.093Z,4.75
2023-06-10T12:52:21.319Z,4.50
2023-06-10T12:57:23.928Z,5.37
2023-06-10T13:02:26.024Z,4.60
2023-06-10T13:07:28.148Z,3.80
2023-06-10T13:12:38.319Z,4.77
2023-06-10T13:17:51.566Z,14.70
2023-06-10T13:22:53.918Z,17.35
2023-06-10T13:27:56.727Z,6.57
2023-06-10T13:32:58.942Z,4.95
2023-06-10T13:38:01.223Z,5.18
2023-06-10T13:43:03.750Z,4.30
2023-06-10T13:48:07.044Z,3.47
2023-06-10T13:53:09.205Z,4.68
2023-06-10T13:58:11.315Z,4.43
2023-06-10T14:03:13.511Z,4.90
2023-06-10T14:08:15.817Z,3.03
2023-06-10T14:13:18.519Z,4.72
2023-06-10T14:18:20.605Z,7.10
2023-06-10T14:23:22.767Z,4.82
2023-06-10T14:28:25.161Z,3.15
2023-06-10T14:33:27.279Z,3.30
2023-06-10T14:38:29.498Z,4.37
2023-06-10T14:43:31.725Z,3.40
2023-06-10T14:48:33.803Z,6.47
2023-06-10T14:53:36.015Z,4.40
2023-06-10T14:58:38.117Z,5.03
2023-06-10T15:03:40.290Z,4.47
2023-06-10T15:08:42.509Z,5.00
2023-06-10T15:13:44.696Z,12.18
2023-06-10T15:18:46.857Z,4.35
2023-06-10T15:23:49.000Z,4.87
2023-06-10T15:28:51.161Z,6.30
2023-06-10T15:33:53.274Z,3.67
2023-06-10T15:38:57.091Z,2.65
2023-06-10T15:44:02.263Z,3.50
2023-06-10T15:49:04.830Z,3.20
2023-06-10T15:54:06.963Z,3.55
2023-06-10T15:59:10.047Z,3.77
2023-06-10T16:04:12.255Z,3.17
2023-06-10T16:09:14.426Z,5.57
2023-06-10T16:14:16.558Z,4.03
2023-06-10T16:19:18.811Z,6.27
